Date,TemperatureHighF,TemperatureAvgF,TemperatureLowF,DewpointHighF,DewpointAvgF,DewpointLowF,HumidityHigh,HumidityAvg,HumidityLow,PressureMaxIn,PressureMinIn,WindSpeedMaxMPH,WindSpeedAvgMPH,GustSpeedMaxMPH,PrecipitationSumIn
2013-1-1,76,72,59,60,60,57,93,66,56,30.14,30.03,12,4,18,0.00
2013-1-2,76,69,62,69,66,62,98,91,77,30.06,29.98,10,2,13,0.00
2013-1-3,79,66,61,68,64,60,99,92,59,30.08,30.00,8,1,12,0.03
2013-1-4,65,62,60,60,59,58,96,89,84,30.23,30.16,13,4,14,0.01
2013-1-5,78,68,58,65,62,56,93,81,64,30.27,30.15,8,2,14,0.00
2013-1-6,79,69,62,71,66,61,99,90,74,30.18,30.05,11,2,15,0.00
2013-1-7,66,64,61,64,62,58,98,92,83,30.17,30.08,10,3,16,0.01
2013-1-8,85,71,61,70,65,60,98,84,57,30.19,30.09,7,2,12,0.01
2013-1-9,86,78,69,72,69,66,97,75,55,30.25,30.16,9,3,16,0.00
2013-1-10,84,73,68,69,66,62,97,80,52,30.26,30.17,12,2,21,0.00
2013-1-11,84,73,64,68,64,60,96,77,48,30.25,30.11,12,3,20,0.00
2013-1-12,83,74,64,69,67,63,97,79,56,30.16,30.06,11,2,17,0.00
2013-1-13,82,74,67,68,66,64,91,78,61,30.15,30.05,8,1,12,0.00
2013-1-14,80,69,61,66,62,59,97,79,50,30.15,30.09,10,2,13,0.00
2013-1-15,80,68,60,67,63,58,97,84,58,30.13,30.03,9,1,13,0.01
2013-1-16,80,72,63,67,64,60,98,79,51,30.09,29.99,9,2,14,0.01
2013-1-17,72,66,60,70,63,49,99,92,66,30.08,29.99,10,2,20,0.01
2013-1-18,63,53,43,57,48,36,93,82,67,30.30,30.21,13,5,20,0.00
2013-1-19,74,64,54,62,58,50,91,80,65,30.24,30.10,10,2,16,0.00
2013-1-20,74,66,61,65,61,59,94,86,70,30.15,30.02,6,2,12,0.00
2013-1-21,73,64,58,65,58,48,88,80,69,30.09,30.01,8,2,14,0.00
2013-1-22,64,59,56,50,42,32,77,56,36,30.26,30.11,12,3,20,0.00
2013-1-23,68,56,48,49,42,35,89,62,30,30.35,30.26,8,2,13,0.00
2013-1-24,69,62,54,55,52,46,95,72,46,30.33,30.24,9,3,14,0.00
2013-1-25,74,61,49,57,51,48,98,73,41,30.31,30.18,7,1,9,0.00
2013-1-26,71,63,48,59,56,48,99,79,58,30.27,30.16,8,2,13,0.00
2013-1-27,80,68,55,61,55,51,98,67,38,30.28,30.18,9,2,14,0.01
2013-1-28,82,68,60,64,61,58,95,79,49,30.30,30.18,9,1,14,0.00
2013-1-29,82,70,61,68,64,58,95,81,57,30.22,30.08,12,3,18,0.00
2013-1-30,78,73,67,68,67,64,92,81,69,30.04,29.91,18,9,30,0.00
2013-1-31,70,59,53,68,47,33,95,66,40,30.23,29.91,13,6,22,0.05
2013-2-1,66,56,45,46,37,27,74,53,24,30.35,30.21,13,4,20,0.00
2013-2-2,70,62,52,52,45,33,75,56,31,30.28,30.14,8,2,12,0.00
2013-2-3,68,60,49,55,52,48,96,75,58,30.20,30.09,8,2,12,0.00
2013-2-4,70,57,43,52,45,34,98,68,28,30.13,30.03,7,1,12,0.01
2013-2-5,75,60,45,57,49,40,94,70,44,30.08,29.99,9,2,14,0.00
2013-2-6,78,65,56,64,58,53,95,80,51,30.09,30.00,9,1,13,0.00
2013-2-7,78,72,65,67,65,61,93,79,57,30.04,29.88,16,7,23,0.06
2013-2-8,69,64,61,66,61,58,95,89,84,30.07,29.89,10,4,18,0.00
2013-2-9,74,66,57,59,56,54,93,71,51,30.17,30.06,9,3,16,0.00
2013-2-10,81,70,61,64,61,57,88,73,51,30.22,30.11,13,4,20,0.00
2013-2-11,79,69,61,68,64,59,95,84,65,30.18,30.07,15,4,22,0.00
2013-2-12,78,73,65,71,69,64,97,90,77,30.08,29.94,14,6,21,0.00
2013-2-13,77,72,65,73,69,56,99,92,70,29.98,29.86,14,6,22,0.03
2013-2-14,66,62,60,61,58,54,98,87,70,30.02,29.91,15,2,22,0.49
2013-2-15,68,62,56,60,57,52,96,83,74,30.06,29.95,7,2,12,0.64
2013-2-16,68,59,56,55,49,38,88,69,50,30.11,29.93,16,5,25,0.06
2013-2-17,55,48,40,40,29,23,75,49,34,30.33,30.11,16,5,22,0.00
2013-2-18,70,56,35,47,39,26,87,54,35,30.34,30.21,11,3,18,0.00
2013-2-19,74,68,55,63,59,50,94,74,58,30.17,30.08,13,4,21,0.00
2013-2-20,77,70,62,66,64,58,99,82,62,30.11,30.00,7,2,11,0.00
2013-2-21,80,69,59,67,63,57,94,81,61,30.10,29.97,10,2,16,0.00
2013-2-22,76,70,64,69,67,63,96,91,78,30.06,30.00,10,3,22,0.00
2013-2-23,80,75,70,73,71,68,96,89,78,29.99,29.89,14,6,20,0.00
2013-2-24,80,74,68,72,70,68,99,89,74,29.96,29.89,10,3,14,0.00
2013-2-25,78,72,67,73,69,66,99,92,77,29.90,29.76,11,2,21,0.01
2013-2-26,75,71,64,72,68,62,97,92,80,29.89,29.69,16,4,31,0.39
2013-2-27,70,67,64,64,61,57,90,81,66,29.97,29.88,9,2,14,0.00
2013-2-28,72,65,60,57,54,50,78,67,52,30.00,29.91,12,2,14,0.00
2013-3-1,61,58,55,50,46,41,69,63,57,30.01,29.93,11,4,16,0.00
2013-3-2,53,44,41,41,34,30,68,66,62,30.05,29.98,8,3,18,0.00
2013-3-3,55,51,46,42,39,32,68,62,58,30.15,30.02,16,4,23,0.00
2013-3-4,58,50,43,44,38,31,92,66,47,30.23,30.14,8,2,15,0.00
2013-3-5,71,57,40,62,51,38,95,81,60,30.16,30.04,11,2,15,0.00
2013-3-6,66,60,55,64,49,40,95,71,47,30.13,29.96,16,6,23,0.10
2013-3-7,60,53,47,47,40,34,87,61,43,30.22,30.12,11,4,17,0.00
2013-3-8,70,57,45,51,46,36,92,69,31,30.22,30.12,9,2,13,0.00
2013-3-9,75,67,54,55,49,43,72,54,33,30.20,30.10,8,2,12,0.00
2013-3-10,79,67,58,58,54,51,90,67,43,30.14,30.03,11,3,20,0.00
2013-3-11,76,70,61,63,61,57,86,73,57,30.09,29.90,17,6,24,0.00
2013-3-12,69,65,59,67,61,53,96,87,78,29.97,29.86,19,6,21,0.40
2013-3-13,70,63,59,50,44,34,66,51,29,30.18,30.09,16,6,28,0.00
2013-3-14,64,58,54,52,43,30,76,59,31,30.25,30.15,13,5,25,0.00
2013-3-15,69,61,50,48,43,32,89,56,28,30.27,30.15,11,2,14,0.00
2013-3-16,73,69,59,58,54,44,75,59,42,30.19,30.07,9,5,16,0.00
2013-3-17,76,69,55,61,59,54,95,72,57,30.12,29.99,11,3,16,0.01
2013-3-18,74,64,60,67,61,58,96,90,77,30.02,29.95,10,2,17,0.03
2013-3-19,82,75,66,67,65,63,96,73,58,30.00,29.89,19,2,20,0.00
2013-3-20,73,66,59,64,61,57,96,84,58,29.94,29.80,9,2,14,0.32
2013-3-21,67,60,55,59,46,31,98,63,32,29.98,29.86,12,4,18,0.00
2013-3-22,76,71,59,69,60,46,96,70,48,29.99,29.87,10,3,16,0.08
2013-3-23,78,73,69,73,71,66,98,93,84,29.96,29.80,14,6,20,0.04
2013-3-24,77,72,70,73,70,69,99,95,85,29.83,29.66,14,6,21,0.04
2013-3-25,65,62,56,52,46,40,69,56,42,30.02,29.87,14,6,24,0.00
2013-3-26,56,53,51,40,38,37,60,57,49,30.19,30.11,16,7,28,0.00
2013-3-27,57,51,44,42,38,31,74,61,46,30.32,30.23,12,4,18,0.00
2013-3-28,67,60,52,47,40,32,77,50,31,30.30,30.19,8,3,16,0.00
2013-3-29,75,59,44,53,44,33,94,64,23,30.32,30.18,9,1,14,0.00
2013-3-30,74,64,49,57,52,47,92,67,43,30.24,30.13,11,3,17,0.00
2013-3-31,78,74,66,59,58,57,73,58,52,30.14,30.06,12,6,20,0.00
2013-4-1,80,73,66,70,67,64,97,84,64,30.03,29.96,9,2,20,0.00
2013-4-2,81,70,63,66,62,57,99,79,48,30.08,29.99,9,1,14,0.01
2013-4-3,82,72,63,69,66,61,97,82,56,30.06,29.92,14,4,20,0.03
2013-4-4,72,68,65,69,66,64,98,94,83,30.08,29.84,16,3,23,3.83
2013-4-5,72,67,62,67,60,56,94,79,63,29.97,29.84,17,6,24,0.01
2013-4-6,72,66,59,61,58,53,88,75,60,30.08,29.96,10,4,18,0.00
2013-4-7,83,73,61,63,60,56,94,66,41,30.13,30.03,8,2,15,0.00
2013-4-8,85,73,63,65,61,55,90,69,38,30.11,30.02,10,2,15,0.00
2013-4-9,85,75,65,67,64,61,93,69,47,30.13,30.04,11,3,17,0.00
2013-4-10,86,76,64,69,66,62,94,72,52,30.09,29.94,10,2,18,0.00
2013-4-11,86,80,72,73,72,70,93,77,62,29.94,29.80,16,8,26,0.00
2013-4-12,79,76,73,74,73,68,93,90,85,29.92,29.80,15,7,29,0.00
2013-4-13,87,78,73,71,69,66,85,73,53,29.97,29.89,7,2,10,0.00
2013-4-14,83,76,70,75,70,62,95,82,67,30.00,29.84,18,5,26,0.00
2013-4-15,89,78,68,72,67,62,84,69,55,30.04,29.92,9,2,13,0.00
2013-4-16,91,81,69,76,72,68,97,75,52,30.11,30.00,8,2,14,0.00
2013-4-17,90,78,69,69,65,59,92,67,38,30.11,29.99,10,2,17,0.00
2013-4-18,87,77,67,73,68,65,92,76,55,30.03,29.93,9,3,14,0.00
2013-4-19,84,78,72,74,72,70,94,83,66,30.00,29.92,14,5,23,0.00
2013-4-20,76,72,66,73,67,62,95,83,70,30.11,29.96,12,4,20,0.00
2013-4-21,85,74,61,72,67,58,91,79,56,30.10,29.99,10,3,15,0.13
2013-4-22,82,78,70,70,68,66,96,74,61,30.05,29.95,9,4,13,0.21
2013-4-23,86,78,67,69,64,60,90,64,44,30.08,29.98,9,3,16,0.00
2013-4-24,85,74,62,68,64,56,93,73,38,30.11,30.05,7,2,13,0.00
2013-4-25,84,76,65,71,66,62,91,72,54,30.19,30.07,8,2,14,0.00
2013-4-26,86,77,66,71,66,59,91,69,47,30.22,30.13,8,2,12,0.00
2013-4-27,86,76,68,70,66,62,94,72,46,30.20,30.05,8,2,15,0.00
2013-4-28,87,76,65,68,65,59,92,70,42,30.10,29.94,9,2,15,0.00
2013-4-29,84,77,67,72,67,62,91,73,58,30.00,29.89,11,3,16,0.00
2013-4-30,88,76,69,72,69,64,95,79,48,29.98,29.89,8,2,14,0.31
2013-5-1,74,69,65,72,68,64,98,96,90,29.98,29.89,10,1,14,1.33
2013-5-2,80,74,66,71,68,65,97,85,70,29.95,29.80,5,1,9,0.00
2013-5-3,82,77,69,71,69,67,93,77,65,29.82,29.74,6,2,10,0.00
2013-5-4,79,70,65,70,67,64,98,89,73,29.81,29.68,7,2,16,0.01
2013-5-5,75,71,65,59,55,51,80,59,44,29.94,29.92,11,3,20,0.04
2013-5-6,75,71,65,60,58,56,78,64,56,30.00,29.93,8,2,15,0.01
2013-5-7,77,72,66,61,60,56,82,67,55,30.04,29.99,6,2,12,0.00
2013-5-8,79,71,61,64,61,59,97,74,53,30.13,30.02,7,1,10,0.00
2013-5-9,83,72,62,67,64,59,95,76,45,30.14,30.06,9,1,12,0.00
2013-5-10,86,74,64,73,68,61,97,83,49,30.12,29.99,8,1,16,0.00
2013-5-11,86,79,72,76,74,71,98,85,65,30.04,29.98,10,3,15,0.00
2013-5-12,86,78,72,75,72,68,97,82,63,30.04,29.93,7,1,12,0.00
2013-5-13,83,74,69,70,62,51,93,68,44,30.12,29.99,12,3,20,0.00
2013-5-14,82,72,61,59,53,46,73,52,29,30.19,30.09,10,3,17,0.00
2013-5-15,88,76,64,65,59,51,83,58,31,30.19,30.05,14,2,20,0.00
2013-5-16,85,75,64,68,63,61,90,69,46,30.11,29.99,8,1,13,0.00
2013-5-17,87,79,69,68,67,64,85,66,50,30.08,30.01,7,2,13,0.00
2013-5-18,88,79,70,74,68,63,95,73,48,30.09,30.00,6,1,10,0.00
2013-5-19,89,78,68,71,68,64,97,72,47,30.08,29.97,6,1,9,0.00
2013-5-20,91,80,70,75,70,65,89,73,53,30.05,29.94,14,2,21,0.00
2013-5-21,88,76,68,72,69,66,97,81,53,30.01,29.90,9,1,13,0.01
2013-5-22,87,78,68,74,70,66,94,80,59,29.95,29.87,9,1,13,0.00
2013-5-23,87,79,70,74,71,68,97,79,57,30.00,29.90,8,2,14,0.00
2013-5-24,88,84,77,76,73,68,87,71,58,30.05,30.00,9,2,15,0.00
2013-5-25,93,82,73,71,66,60,88,62,36,30.14,30.03,10,3,20,0.00
2013-5-26,89,77,67,65,59,48,86,58,26,30.19,30.08,9,2,16,0.00
2013-5-27,90,85,75,68,63,60,77,49,40,30.14,30.01,8,3,15,0.00
2013-5-28,90,78,70,75,71,67,96,78,51,30.11,29.99,14,3,22,1.64
2013-5-29,88,78,71,73,71,69,96,80,56,30.06,29.99,13,2,21,0.01
2013-5-30,88,79,73,74,71,69,94,78,57,30.05,29.96,14,3,29,0.02
2013-5-31,88,78,72,76,72,69,90,82,61,30.06,29.98,10,2,16,0.01
2013-6-1,87,77,73,79,73,70,97,88,66,30.02,29.93,7,1,13,0.86
2013-6-2,88,79,72,77,74,72,98,84,62,29.98,29.88,9,2,13,0.01
2013-6-3,84,78,75,77,74,72,96,88,75,29.98,29.89,10,2,15,0.26
2013-6-4,84,80,76,75,73,72,92,81,72,30.00,29.94,11,3,16,0.00
2013-6-5,82,76,73,75,73,71,96,90,73,29.98,29.86,9,2,14,0.28
2013-6-6,79,76,74,76,74,72,97,92,86,29.86,29.67,21,6,31,1.78
2013-6-7,84,78,72,76,73,71,98,87,71,29.95,29.77,8,1,13,0.00
2013-6-8,87,78,72,79,74,70,97,88,73,30.08,29.95,10,2,20,1.18
2013-6-9,90,80,71,79,74,70,98,84,60,30.07,29.98,8,1,12,0.04
2013-6-10,90,81,75,77,75,73,96,83,63,30.06,30.00,7,2,12,0.00
2013-6-11,89,82,74,77,74,70,96,78,59,30.08,29.99,8,2,12,0.71
2013-6-12,91,85,79,77,74,71,87,71,57,30.07,29.98,12,2,20,0.00
2013-6-13,90,83,78,76,75,73,93,79,59,30.03,29.90,8,1,12,0.00
2013-6-14,89,84,79,76,74,73,87,73,62,29.94,29.87,6,1,12,0.00
2013-6-15,90,83,78,78,75,72,90,79,65,30.03,29.91,7,1,12,0.00
2013-6-16,92,84,76,79,77,73,95,79,59,30.05,30.00,7,1,12,0.77
2013-6-17,92,83,76,78,75,72,97,80,57,30.04,29.98,7,1,10,0.01
2013-6-18,91,86,78,77,76,72,92,73,57,30.04,29.95,8,1,12,0.00
2013-6-19,92,83,74,79,76,72,97,80,59,30.02,29.95,7,1,10,0.39
2013-6-20,91,83,76,77,74,70,90,75,52,30.08,29.99,7,1,13,0.01
2013-6-21,93,81,73,76,72,70,94,78,52,30.09,30.01,7,1,16,0.32
2013-6-22,92,81,72,76,72,69,97,77,53,30.09,30.02,9,1,15,0.05
2013-6-23,93,79,71,76,73,68,98,85,51,30.11,30.03,14,1,20,0.23
2013-6-24,93,81,73,77,74,70,98,82,53,30.15,30.04,6,1,10,0.00
2013-6-25,92,83,74,76,74,71,96,75,53,30.10,30.00,12,1,20,0.00
2013-6-26,90,80,74,77,74,70,97,83,62,30.05,29.99,8,1,13,0.18
2013-6-27,91,81,71,77,74,70,96,79,59,30.03,29.93,6,1,9,0.01
2013-6-28,90,82,74,78,75,70,96,81,59,29.96,29.83,8,1,14,0.94
2013-6-29,89,82,77,78,75,73,94,82,65,29.87,29.79,11,2,17,0.19
2013-6-30,88,82,74,79,76,73,95,82,68,29.87,29.79,13,4,21,0.30
2013-7-1,78,75,73,76,74,71,98,95,86,29.97,29.83,14,4,25,1.25
2013-7-2,89,78,73,77,73,71,97,86,61,30.06,29.94,14,3,20,0.36
2013-7-3,89,80,72,78,74,69,98,85,63,30.07,30.01,18,4,33,1.73
2013-7-4,90,81,74,78,74,70,95,82,59,30.12,30.04,13,3,20,0.05
2013-7-5,88,76,72,77,73,69,95,91,65,30.12,30.03,16,1,24,0.12
2013-7-6,93,81,73,77,74,71,98,82,50,30.09,30.00,9,2,17,0.01
2013-7-7,93,82,75,76,74,71,95,77,50,30.10,29.99,10,2,17,0.00
2013-7-8,92,82,75,78,74,71,95,77,52,30.13,30.05,8,1,14,0.00
2013-7-9,94,86,77,76,73,69,91,67,48,30.15,30.02,9,2,13,0.00
2013-7-10,90,80,73,75,73,70,96,80,55,30.07,29.95,10,1,14,0.10
2013-7-11,88,80,75,76,74,72,96,84,64,30.01,29.91,8,2,12,0.01
2013-7-12,89,81,74,77,74,71,96,82,62,29.95,29.87,8,1,12,0.06
2013-7-13,86,78,74,78,74,72,96,88,68,29.96,29.89,10,1,14,0.95
2013-7-14,89,77,73,78,74,71,97,90,68,30.05,29.93,10,2,13,0.51
2013-7-15,92,79,73,75,73,71,96,82,57,30.08,29.97,10,1,15,0.16
2013-7-16,88,77,74,77,73,69,97,88,61,30.12,30.04,16,2,26,0.19
2013-7-17,92,78,73,76,73,70,97,86,54,30.13,30.04,12,1,20,0.02
2013-7-18,85,79,73,76,74,70,97,85,68,30.09,30.02,11,2,16,0.63
2013-7-19,90,78,72,78,73,70,98,87,60,30.10,30.04,9,2,14,0.00
2013-7-20,93,79,72,79,73,70,97,83,59,30.09,30.00,12,1,20,0.00
2013-7-21,89,82,74,80,76,72,96,83,64,30.10,30.03,10,2,14,0.00
2013-7-22,89,82,76,79,77,75,97,85,69,30.12,30.05,10,2,15,0.00
2013-7-23,89,84,81,77,75,74,84,74,62,30.08,29.96,10,2,15,0.00
2013-7-24,90,84,79,77,75,73,87,76,63,30.00,29.90,6,1,14,0.00
2013-7-25,89,83,78,78,76,74,93,80,65,30.00,29.88,6,2,13,0.04
2013-7-26,91,85,79,79,77,76,94,78,65,30.00,29.94,12,2,16,1.00
2013-7-27,92,84,76,79,75,70,98,77,49,29.99,29.90,9,1,14,0.25
2013-7-28,90,81,75,78,75,73,97,83,64,30.04,29.92,8,1,12,0.05
2013-7-29,93,82,73,76,74,69,97,79,56,30.13,30.00,13,1,24,0.00
2013-7-30,95,79,74,78,74,72,95,86,50,30.15,30.04,17,1,23,0.10
2013-7-31,93,82,76,78,75,70,96,80,55,30.12,29.99,8,1,13,0.00
2013-8-1,92,83,75,77,74,70,94,77,58,30.04,29.92,7,1,12,0.00
2013-8-2,90,77,75,78,73,72,94,89,67,30.00,29.92,7,1,9,0.00
2013-8-3,92,87,82,78,76,74,82,70,59,30.08,30.03,8,2,13,0.00
2013-8-4,90,83,78,80,77,75,93,81,69,30.08,29.99,6,0,12,0.04
2013-8-5,93,85,78,80,77,75,92,78,63,30.02,29.92,6,1,12,0.00
2013-8-6,92,84,78,79,78,74,93,82,64,29.97,29.87,9,1,14,0.12
2013-8-7,94,81,75,80,75,71,97,83,57,29.94,29.88,11,1,20,0.27
2013-8-8,93,81,75,79,76,73,97,85,55,29.97,29.90,16,2,25,0.02
2013-8-9,92,88,84,77,74,72,78,64,53,30.02,29.99,7,3,12,0.00
2013-8-31,90,82,78,76,74,73,90,78,63,29.95,29.89,4,0,12,0.07
2013-9-1,92,82,76,77,74,72,95,79,56,29.97,29.90,6,1,9,0.02
2013-9-2,92,82,75,78,75,70,96,81,61,30.01,29.92,8,1,13,0.14
2013-9-3,90,82,76,78,75,71,97,82,64,30.01,29.91,8,0,12,0.01
2013-9-4,91,78,74,77,74,69,94,89,60,30.06,29.94,9,1,20,4.00
2013-9-5,86,77,75,79,74,72,95,91,78,30.06,30.00,5,0,8,0.00
2013-9-6,94,83,73,79,75,71,97,78,59,30.03,29.91,14,2,22,0.07
2013-9-7,92,80,71,76,73,70,96,81,54,30.00,29.89,11,2,16,0.01
2013-9-8,90,81,73,76,73,70,94,79,52,29.94,29.84,10,2,14,0.00
2013-9-9,93,87,79,75,72,69,88,63,50,30.00,29.90,9,2,14,0.00
2013-9-10,93,82,75,75,72,66,94,74,46,30.04,29.96,12,2,20,0.00
2013-9-11,92,82,75,76,72,68,92,74,52,30.04,29.95,14,2,23,0.07
2013-9-12,91,81,74,76,73,70,95,79,61,30.00,29.87,8,1,12,0.00
2013-9-13,91,85,78,76,74,72,88,71,54,29.89,29.80,7,1,12,0.00
2013-9-14,92,86,76,76,74,70,92,69,56,29.95,29.83,7,1,13,0.00
2013-9-15,94,81,70,78,74,69,97,81,53,30.07,29.93,15,2,29,1.71
2013-9-16,92,77,72,78,74,70,97,90,57,30.03,29.95,12,1,23,0.11
2013-9-17,92,78,72,77,73,71,98,87,55,30.02,29.91,9,2,21,0.15
2013-9-18,92,79,73,77,74,72,97,86,56,30.01,29.92,10,2,18,0.55
2013-9-19,91,80,73,77,74,72,97,84,58,30.03,29.94,9,2,14,0.01
2013-9-20,91,81,72,74,71,68,95,74,51,30.00,29.87,8,1,13,0.00
2013-9-21,88,79,70,74,71,68,92,77,57,29.92,29.77,9,2,15,0.00
2013-9-22,88,81,75,77,75,73,94,82,64,29.84,29.74,12,2,22,0.00
2013-9-23,83,77,75,78,76,74,98,94,85,29.93,29.81,6,2,12,1.85
2013-9-24,79,76,74,76,75,73,98,96,90,29.95,29.83,9,2,14,2.00
2013-9-25,80,75,71,77,73,69,98,94,85,29.93,29.79,10,2,18,2.32
2013-9-26,89,82,76,80,76,72,95,83,67,29.85,29.78,10,2,16,0.01
2013-9-27,86,78,72,74,71,70,95,80,63,29.94,29.84,10,4,16,0.00
2013-9-28,88,78,71,75,72,70,95,80,60,29.98,29.89,9,3,14,0.00
2013-9-29,89,78,71,73,70,63,93,77,44,29.97,29.87,9,2,12,0.00
2013-9-30,90,83,72,75,72,67,93,70,50,29.97,29.89,7,2,13,0.00
2013-10-1,92,81,71,75,71,68,96,74,50,30.02,29.93,8,1,13,0.00
2013-10-2,90,80,73,74,72,70,93,76,56,30.02,29.94,9,2,16,0.00
2013-10-3,90,80,72,75,72,70,92,77,52,30.04,29.94,9,1,14,0.00
2013-10-4,90,81,74,75,73,68,94,77,51,30.06,29.97,7,1,10,0.00
2013-10-5,89,82,73,76,73,70,92,74,58,30.04,29.92,7,1,12,0.00
2013-10-6,89,81,72,75,72,67,97,77,51,29.97,29.85,8,2,15,0.00
2013-10-7,86,79,74,78,75,72,95,86,74,29.86,29.75,13,3,25,0.21
2013-10-8,86,81,75,77,74,71,89,80,67,29.93,29.79,9,2,14,0.00
2013-10-9,79,74,69,71,69,66,91,84,75,30.02,29.92,8,3,14,0.00
2013-10-10,84,74,66,72,68,64,95,81,61,30.04,29.94,9,2,14,0.00
2013-10-11,86,76,65,70,67,64,98,75,51,30.02,29.93,8,1,10,0.00
2013-10-12,85,76,66,68,65,60,92,71,46,30.03,29.96,9,1,14,0.00
2013-10-13,86,76,65,71,64,61,92,68,44,30.06,29.96,9,2,13,0.00
2013-10-14,84,76,66,70,67,63,93,75,53,30.03,29.91,10,3,15,0.00
2013-10-15,81,74,68,72,69,66,95,84,69,29.98,29.88,7,2,12,0.00
2013-10-16,84,77,70,73,70,68,95,81,67,29.95,29.89,6,1,12,0.00
2013-10-17,88,77,68,73,70,66,96,79,51,29.96,29.88,6,1,9,0.00
2013-10-18,88,79,70,75,71,68,96,79,57,29.96,29.88,7,1,12,0.00
2013-10-19,88,81,74,77,74,69,96,81,56,29.93,29.85,8,2,14,0.01
2013-10-20,89,79,73,78,74,72,98,85,62,29.94,29.85,6,0,9,0.08
2013-10-21,88,79,72,76,73,71,97,83,60,29.99,29.90,7,0,12,0.00
2013-10-22,86,77,70,77,73,69,98,88,73,29.94,29.81,10,2,16,0.87
2013-10-23,79,75,72,73,65,53,98,74,45,29.99,29.80,13,4,20,0.01
2013-10-24,72,68,63,59,53,45,80,60,48,30.15,29.98,11,4,16,0.00
2013-10-25,79,70,61,63,57,51,90,67,41,30.22,30.12,10,3,17,0.00
2013-10-26,78,70,62,62,59,52,85,68,44,30.19,30.08,8,2,12,0.00
2013-10-27,79,67,58,63,58,54,91,74,48,30.11,30.03,8,2,13,0.00
2013-10-28,81,71,58,64,60,56,95,70,47,30.17,30.07,10,2,15,0.00
2013-10-29,85,73,64,67,63,60,90,72,43,30.20,30.09,10,2,16,0.00
2013-10-30,86,75,66,70,66,63,94,74,49,30.20,30.06,9,2,15,0.00
2013-10-31,86,75,65,71,67,63,95,79,52,30.10,29.96,9,2,15,0.00
2013-11-1,83,76,70,75,72,69,95,87,75,29.99,29.87,12,3,21,0.00
2013-11-2,79,73,67,75,69,62,96,88,73,29.96,29.81,11,2,18,0.34
2013-11-3,76,68,62,62,52,42,86,59,31,30.09,29.95,11,4,18,0.00
2013-11-4,81,69,59,63,58,52,86,70,47,30.12,30.04,15,4,24,0.00
2013-11-5,83,74,65,70,67,63,92,79,62,30.10,30.02,12,4,20,0.00
2013-11-6,86,76,69,70,68,65,94,77,53,30.08,29.98,8,2,20,0.00
2013-11-8,80,73,65,66,63,61,86,73,60,30.09,30.00,10,5,16,0.00
2013-11-9,84,73,64,70,65,60,87,76,59,30.12,30.04,10,3,17,0.00
2013-11-10,83,73,66,69,66,63,91,78,59,30.14,30.04,8,2,13,0.00
2013-11-11,83,73,66,70,67,64,93,81,57,30.13,30.04,8,2,13,0.00
2013-11-12,80,71,65,69,66,58,96,85,65,30.09,29.99,12,1,20,0.00
2013-11-13,70,63,55,59,52,48,78,67,58,30.27,30.05,14,7,24,0.00
2013-11-14,78,69,53,58,56,49,86,64,50,30.26,30.13,10,2,24,0.00
2013-11-15,76,70,62,66,63,58,88,80,67,30.15,30.02,8,2,13,0.00
2013-11-16,79,74,69,71,67,64,92,79,70,30.10,30.00,9,2,15,0.01
2013-11-17,84,74,69,71,68,64,93,81,57,30.05,29.97,10,2,15,0.00
2013-11-18,83,75,68,72,70,67,97,86,67,30.01,29.92,7,1,10,0.01
2013-11-19,81,75,71,72,71,69,97,88,72,29.93,29.86,9,2,14,0.15
2013-11-20,82,75,66,72,69,64,91,83,73,30.06,29.95,7,2,14,0.00
2013-11-21,85,79,70,73,71,68,94,78,64,30.13,30.05,10,2,20,0.00
2013-11-22,74,72,69,67,65,64,84,81,78,30.11,30.08,4,1,8,0.00
2013-11-23,82,72,64,69,66,62,96,82,60,30.10,29.99,7,1,12,0.00
2013-11-24,74,67,60,66,61,53,94,82,70,30.19,30.01,14,5,20,0.00
2013-11-25,77,68,60,64,59,54,87,73,56,30.19,30.02,12,4,22,0.00
2013-11-26,81,73,67,73,70,64,96,89,74,30.02,29.76,19,7,32,0.48
2013-11-27,72,63,50,71,56,38,97,77,61,30.18,29.74,15,6,32,0.31
2013-11-28,49,44,40,39,36,34,78,71,62,30.32,30.18,14,5,23,0.00
2013-11-29,72,66,57,57,55,52,85,70,52,30.33,30.23,12,4,18,0.00
2013-11-30,76,70,59,64,62,56,93,77,67,30.27,30.15,10,3,16,0.00
2013-12-1,70,64,57,65,61,56,99,91,80,30.17,29.90,9,2,12,0.00
2013-12-2,68,65,61,62,60,59,98,85,75,29.93,29.84,4,0,7,0.01
2013-12-3,76,72,69,68,66,62,93,81,69,29.95,29.88,10,3,15,0.00
2013-12-4,80,71,64,70,66,63,97,86,68,30.06,29.94,11,2,18,0.00
2013-12-5,82,74,64,70,67,63,96,79,57,30.15,30.05,7,2,14,0.00
2013-12-6,82,77,71,72,70,69,95,82,69,30.15,30.06,15,4,22,0.01
2013-12-7,84,72,65,70,67,64,97,85,52,30.21,30.12,4,1,8,0.00
2013-12-8,84,72,64,70,67,63,98,85,59,30.19,30.07,10,2,15,0.01
2013-12-9,82,74,67,72,69,65,96,86,71,30.16,30.13,10,5,19,0.00
2013-12-10,80,71,61,72,68,60,99,90,75,30.13,30.13,6,6,16,0.01
2013-12-11,83,71,65,69,66,61,97,86,61,30.22,30.12,8,4,13,0.00
2013-12-12,72,65,55,66,55,32,98,73,35,30.27,30.16,11,4,16,0.00
2013-12-13,62,53,51,54,45,35,85,74,47,30.26,30.17,8,4,13,0.00
2013-12-14,81,76,73,71,70,70,93,84,70,29.99,29.94,18,8,28,0.00
2013-12-15,73,69,61,72,64,57,98,87,70,30.11,29.89,12,4,18,0.58
2013-12-16,63,57,52,57,49,43,89,76,56,30.21,30.09,8,4,16,0.00
2013-12-17,67,53,47,55,47,43,86,80,63,30.23,30.15,10,2,14,0.00
2013-12-18,69,59,49,54,48,42,92,69,42,30.27,30.18,12,3,18,0.00
2013-12-19,77,60,47,59,52,45,94,77,44,30.25,30.12,7,1,12,0.00
2013-12-20,84,72,60,68,64,56,90,75,59,30.17,30.06,9,2,17,0.00
2013-12-21,85,77,70,72,70,67,93,79,62,30.10,30.00,13,5,21,0.00
2013-12-22,81,74,70,72,70,67,94,87,74,30.11,30.04,14,5,23,0.00
2013-12-23,81,76,68,74,72,68,98,89,78,30.15,30.08,14,6,21,0.00
2013-12-24,73,64,52,72,54,37,96,72,40,30.24,30.10,12,6,21,0.00
2013-12-25,76,62,51,61,51,40,75,66,58,30.23,30.09,11,4,18,0.00
2013-12-26,77,70,60,65,62,57,89,77,60,30.17,30.06,7,2,12,0.00
2013-12-27,76,69,61,67,64,58,93,84,73,30.19,30.10,53,5,53,0.00
2013-12-28,79,73,65,70,67,61,95,82,71,30.19,29.97,53,16,53,0.00
2013-12-29,74,71,63,72,69,61,97,93,88,30.00,29.87,16,5,26,0.14
2013-12-30,64,63,62,62,60,59,94,90,86,30.18,29.99,9,2,13,0.00
2013-12-31,67,64,60,59,54,51,89,71,60,30.27,30.13,9,3,13,0.00
2014-1-1,68,65,61,64,60,52,94,84,71,30.22,30.06,10,4,18,0.05
2014-1-2,77,69,61,72,66,55,98,92,80,29.98,29.85,16,4,25,0.03